sensor_id;sensor_type;location;lat;lon;timestamp;temperature;humidity
42201;DHT22;27869;51.442;7.540;2023-08-30T00:00:16;14.80;99.90
42201;DHT22;27869;51.442;7.540;2023-08-30T00:02:43;14.80;99.90
42201;DHT22;27869;51.442;7.540;2023-08-30T00:05:10;14.80;99.90
42201;DHT22;27869;51.442;7.540;2023-08-30T00:07:37;14.70;99.90
42201;DHT22;27869;51.442;7.540;2023-08-30T00:10:05;14.70;99.90
42201;DHT22;27869;51.442;7.540;2023-08-30T00:12:32;14.70;99.90
42201;DHT22;27869;51.442;7.540;2023-08-30T00:14:59;14.70;99.90
42201;DHT22;27869;51.442;7.540;2023-08-30T00:17:27;14.70;99.90
42201;DHT22;27869;51.442;7.540;2023-08-30T00:19:54;14.70;99.90
42201;DHT22;27869;51.442;7.540;2023-08-30T00:22:21;14.60;99.90
42201;DHT22;27869;51.442;7.540;2023-08-30T00:24:49;14.60;99.90
42201;DHT22;27869;51.442;7.540;2023-08-30T00:27:16;14.60;99.90
42201;DHT22;27869;51.442;7.540;2023-08-30T00:29:42;14.60;99.90
42201;DHT22;27869;51.442;7.540;2023-08-30T00:32:09;14.50;99.90
42201;DHT22;27869;51.442;7.540;2023-08-30T00:34:38;14.50;99.90
42201;DHT22;27869;51.442;7.540;2023-08-30T00:37:05;14.50;99.90
42201;DHT22;27869;51.442;7.540;2023-08-30T00:39:32;14.50;99.90
42201;DHT22;27869;51.442;7.540;2023-08-30T00:41:58;14.40;99.90
42201;DHT22;27869;51.442;7.540;2023-08-30T00:44:30;14.40;99.90
42201;DHT22;27869;51.442;7.540;2023-08-30T00:46:57;14.40;99.90
42201;DHT22;27869;51.442;7.540;2023-08-30T00:49:24;14.40;99.90
42201;DHT22;27869;51.442;7.540;2023-08-30T00:51:52;14.30;99.90
42201;DHT22;27869;51.442;7.540;2023-08-30T00:54:20;14.30;99.90
42201;DHT22;27869;51.442;7.540;2023-08-30T00:56:47;14.30;99.90
42201;DHT22;27869;51.442;7.540;2023-08-30T00:59:16;14.20;99.90
42201;DHT22;27869;51.442;7.540;2023-08-30T01:01:43;14.20;99.90
42201;DHT22;27869;51.442;7.540;2023-08-30T01:04:11;14.20;99.90
42201;DHT22;27869;51.442;7.540;2023-08-30T01:06:38;14.20;99.90
42201;DHT22;27869;51.442;7.540;2023-08-30T01:09:07;14.20;99.90
42201;DHT22;27869;51.442;7.540;2023-08-30T01:11:40;14.20;99.90
42201;DHT22;27869;51.442;7.540;2023-08-30T01:14:10;14.10;99.90
42201;DHT22;27869;51.442;7.540;2023-08-30T01:16:39;14.10;99.90
42201;DHT22;27869;51.442;7.540;2023-08-30T01:19:25;14.10;99.90
42201;DHT22;27869;51.442;7.540;2023-08-30T01:21:58;14.00;99.90
42201;DHT22;27869;51.442;7.540;2023-08-30T01:24:37;14.00;99.90
42201;DHT22;27869;51.442;7.540;2023-08-30T01:27:11;14.00;99.90
42201;DHT22;27869;51.442;7.540;2023-08-30T01:29:40;13.90;99.90
42201;DHT22;27869;51.442;7.540;2023-08-30T01:32:09;13.90;99.90
42201;DHT22;27869;51.442;7.540;2023-08-30T01:34:37;13.90;99.90
42201;DHT22;27869;51.442;7.540;2023-08-30T01:37:06;13.80;99.90
42201;DHT22;27869;51.442;7.540;2023-08-30T01:39:34;13.80;99.90
42201;DHT22;27869;51.442;7.540;2023-08-30T01:42:02;13.70;99.90
42201;DHT22;27869;51.442;7.540;2023-08-30T01:44:32;13.70;99.90
42201;DHT22;27869;51.442;7.540;2023-08-30T01:47:00;13.70;99.90
42201;DHT22;27869;51.442;7.540;2023-08-30T01:49:29;13.70;99.90
42201;DHT22;27869;51.442;7.540;2023-08-30T01:51:58;13.60;99.90
42201;DHT22;27869;51.442;7.540;2023-08-30T01:54:25;13.60;99.90
42201;DHT22;27869;51.442;7.540;2023-08-30T01:56:53;13.50;99.90
42201;DHT22;27869;51.442;7.540;2023-08-30T01:59:20;13.50;99.90
42201;DHT22;27869;51.442;7.540;2023-08-30T02:01:48;13.50;99.90
42201;DHT22;27869;51.442;7.540;2023-08-30T02:04:15;13.50;99.90
42201;DHT22;27869;51.442;7.540;2023-08-30T02:06:47;13.40;99.90
42201;DHT22;27869;51.442;7.540;2023-08-30T02:09:21;13.40;99.90
42201;DHT22;27869;51.442;7.540;2023-08-30T02:11:51;13.40;99.90
42201;DHT22;27869;51.442;7.540;2023-08-30T02:14:20;13.30;99.90
42201;DHT22;27869;51.442;7.540;2023-08-30T02:16:49;13.30;99.90
42201;DHT22;27869;51.442;7.540;2023-08-30T02:19:17;13.30;99.90
42201;DHT22;27869;51.442;7.540;2023-08-30T02:21:46;13.30;99.90
42201;DHT22;27869;51.442;7.540;2023-08-30T02:24:14;13.20;99.90
42201;DHT22;27869;51.442;7.540;2023-08-30T02:26:41;13.20;99.90
42201;DHT22;27869;51.442;7.540;2023-08-30T02:29:08;13.20;99.90
42201;DHT22;27869;51.442;7.540;2023-08-30T02:31:35;13.20;99.90
42201;DHT22;27869;51.442;7.540;2023-08-30T02:34:03;13.10;99.90
42201;DHT22;27869;51.442;7.540;2023-08-30T02:36:30;13.10;99.90
42201;DHT22;27869;51.442;7.540;2023-08-30T02:38:57;13.00;99.90
42201;DHT22;27869;51.442;7.540;2023-08-30T02:41:24;13.00;99.90
42201;DHT22;27869;51.442;7.540;2023-08-30T02:43:50;13.00;99.90
42201;DHT22;27869;51.442;7.540;2023-08-30T02:46:17;13.00;99.90
42201;DHT22;27869;51.442;7.540;2023-08-30T02:48:44;13.00;99.90
42201;DHT22;27869;51.442;7.540;2023-08-30T02:51:12;12.90;99.90
42201;DHT22;27869;51.442;7.540;2023-08-30T02:53:39;12.90;99.90
42201;DHT22;27869;51.442;7.540;2023-08-30T02:56:06;12.90;99.90
42201;DHT22;27869;51.442;7.540;2023-08-30T02:58:33;12.90;99.90
42201;DHT22;27869;51.442;7.540;2023-08-30T03:01:00;12.90;99.90
42201;DHT22;27869;51.442;7.540;2023-08-30T03:03:28;12.90;99.90
42201;DHT22;27869;51.442;7.540;2023-08-30T03:05:55;12.90;99.90
42201;DHT22;27869;51.442;7.540;2023-08-30T03:08:23;12.90;99.90
42201;DHT22;27869;51.442;7.540;2023-08-30T03:10:50;12.90;99.90
42201;DHT22;27869;51.442;7.540;2023-08-30T03:13:17;12.90;99.90
42201;DHT22;27869;51.442;7.540;2023-08-30T03:15:44;12.90;99.90
42201;DHT22;27869;51.442;7.540;2023-08-30T03:18:11;12.90;99.90
42201;DHT22;27869;51.442;7.540;2023-08-30T03:20:38;12.90;99.90
42201;DHT22;27869;51.442;7.540;2023-08-30T03:23:05;12.90;99.90
42201;DHT22;27869;51.442;7.540;2023-08-30T03:25:33;12.90;99.90
42201;DHT22;27869;51.442;7.540;2023-08-30T03:28:00;12.90;99.90
42201;DHT22;27869;51.442;7.540;2023-08-30T03:30:26;12.90;99.90
42201;DHT22;27869;51.442;7.540;2023-08-30T03:32:53;12.80;99.90
42201;DHT22;27869;51.442;7.540;2023-08-30T03:35:20;12.80;99.90
42201;DHT22;27869;51.442;7.540;2023-08-30T03:37:47;12.80;99.90
42201;DHT22;27869;51.442;7.540;2023-08-30T03:40:14;12.80;99.90
42201;DHT22;27869;51.442;7.540;2023-08-30T03:42:42;12.80;99.90
42201;DHT22;27869;51.442;7.540;2023-08-30T03:45:09;12.80;99.90
42201;DHT22;27869;51.442;7.540;2023-08-30T03:47:36;12.80;99.90
42201;DHT22;27869;51.442;7.540;2023-08-30T03:50:04;12.80;99.90
42201;DHT22;27869;51.442;7.540;2023-08-30T03:52:31;12.70;99.90
42201;DHT22;27869;51.442;7.540;2023-08-30T03:54:58;12.70;99.90
42201;DHT22;27869;51.442;7.540;2023-08-30T03:57:25;12.70;99.90
42201;DHT22;27869;51.442;7.540;2023-08-30T03:59:53;12.70;99.90
42201;DHT22;27869;51.442;7.540;2023-08-30T04:02:20;12.70;99.90
42201;DHT22;27869;51.442;7.540;2023-08-30T04:04:47;12.70;99.90
42201;DHT22;27869;51.442;7.540;2023-08-30T04:07:14;12.70;99.90
42201;DHT22;27869;51.442;7.540;2023-08-30T04:09:41;12.70;99.90
42201;DHT22;27869;51.442;7.540;2023-08-30T04:12:08;12.70;99.90
42201;DHT22;27869;51.442;7.540;2023-08-30T04:14:35;12.70;99.90
42201;DHT22;27869;51.442;7.540;2023-08-30T04:17:03;12.70;99.90
42201;DHT22;27869;51.442;7.540;2023-08-30T04:19:30;12.70;99.90
42201;DHT22;27869;51.442;7.540;2023-08-30T04:21:57;12.60;99.90
42201;DHT22;27869;51.442;7.540;2023-08-30T04:24:24;12.60;99.90
42201;DHT22;27869;51.442;7.540;2023-08-30T04:26:51;12.60;99.90
42201;DHT22;27869;51.442;7.540;2023-08-30T04:29:19;12.60;99.90
42201;DHT22;27869;51.442;7.540;2023-08-30T04:31:46;12.60;99.90
42201;DHT22;27869;51.442;7.540;2023-08-30T04:34:18;12.50;99.90
42201;DHT22;27869;51.442;7.540;2023-08-30T04:36:44;12.50;99.90
42201;DHT22;27869;51.442;7.540;2023-08-30T04:39:12;12.50;99.90
42201;DHT22;27869;51.442;7.540;2023-08-30T04:41:39;12.50;99.90
42201;DHT22;27869;51.442;7.540;2023-08-30T04:44:06;12.40;99.90
42201;DHT22;27869;51.442;7.540;2023-08-30T04:46:33;12.40;99.90
42201;DHT22;27869;51.442;7.540;2023-08-30T04:49:00;12.40;99.90
42201;DHT22;27869;51.442;7.540;2023-08-30T04:51:28;12.30;99.90
42201;DHT22;27869;51.442;7.540;2023-08-30T04:53:55;12.30;99.90
42201;DHT22;27869;51.442;7.540;2023-08-30T04:56:23;12.40;99.90
42201;DHT22;27869;51.442;7.540;2023-08-30T04:58:50;12.30;99.90
42201;DHT22;27869;51.442;7.540;2023-08-30T05:01:16;12.30;99.90
42201;DHT22;27869;51.442;7.540;2023-08-30T05:03:43;12.30;99.90
42201;DHT22;27869;51.442;7.540;2023-08-30T05:06:10;12.30;99.90
42201;DHT22;27869;51.442;7.540;2023-08-30T05:08:40;12.30;99.90
42201;DHT22;27869;51.442;7.540;2023-08-30T05:11:07;12.30;99.90
42201;DHT22;27869;51.442;7.540;2023-08-30T05:13:34;12.30;99.90
42201;DHT22;27869;51.442;7.540;2023-08-30T05:16:01;12.30;99.90
42201;DHT22;27869;51.442;7.540;2023-08-30T05:18:28;12.30;99.90
42201;DHT22;27869;51.442;7.540;2023-08-30T05:20:55;12.30;99.90
42201;DHT22;27869;51.442;7.540;2023-08-30T05:23:22;12.30;99.90
42201;DHT22;27869;51.442;7.540;2023-08-30T05:25:50;12.30;99.90
42201;DHT22;27869;51.442;7.540;2023-08-30T05:28:17;12.30;99.90
42201;DHT22;27869;51.442;7.540;2023-08-30T05:30:44;12.30;99.90
42201;DHT22;27869;51.442;7.540;2023-08-30T05:33:11;12.30;99.90
42201;DHT22;27869;51.442;7.540;2023-08-30T05:35:38;12.30;99.90
42201;DHT22;27869;51.442;7.540;2023-08-30T05:38:05;12.30;99.90
42201;DHT22;27869;51.442;7.540;2023-08-30T05:40:32;12.30;99.90
42201;DHT22;27869;51.442;7.540;2023-08-30T05:43:00;12.30;99.90
42201;DHT22;27869;51.442;7.540;2023-08-30T05:45:27;12.30;99.90
42201;DHT22;27869;51.442;7.540;2023-08-30T05:47:54;12.30;99.90
42201;DHT22;27869;51.442;7.540;2023-08-30T05:50:20;12.30;99.90
42201;DHT22;27869;51.442;7.540;2023-08-30T05:52:47;12.30;99.90
42201;DHT22;27869;51.442;7.540;2023-08-30T05:55:14;12.40;99.90
42201;DHT22;27869;51.442;7.540;2023-08-30T05:57:41;12.40;99.90
42201;DHT22;27869;51.442;7.540;2023-08-30T06:00:11;12.40;99.90
42201;DHT22;27869;51.442;7.540;2023-08-30T06:02:38;12.40;99.90
42201;DHT22;27869;51.442;7.540;2023-08-30T06:05:06;12.50;99.90
42201;DHT22;27869;51.442;7.540;2023-08-30T06:07:33;12.50;99.90
42201;DHT22;27869;51.442;7.540;2023-08-30T06:10:00;12.50;99.90
42201;DHT22;27869;51.442;7.540;2023-08-30T06:12:26;12.60;99.90
42201;DHT22;27869;51.442;7.540;2023-08-30T06:14:53;12.60;99.90
42201;DHT22;27869;51.442;7.540;2023-08-30T06:17:22;12.60;99.90
42201;DHT22;27869;51.442;7.540;2023-08-30T06:19:49;12.70;99.90
42201;DHT22;27869;51.442;7.540;2023-08-30T06:22:15;12.70;99.90
42201;DHT22;27869;51.442;7.540;2023-08-30T06:24:42;12.80;99.90
42201;DHT22;27869;51.442;7.540;2023-08-30T06:27:09;12.80;99.90
42201;DHT22;27869;51.442;7.540;2023-08-30T06:29:36;12.80;99.90
42201;DHT22;27869;51.442;7.540;2023-08-30T06:32:04;12.90;99.90
42201;DHT22;27869;51.442;7.540;2023-08-30T06:34:32;12.90;99.90
42201;DHT22;27869;51.442;7.540;2023-08-30T06:36:59;13.00;99.90
42201;DHT22;27869;51.442;7.540;2023-08-30T06:39:31;13.00;99.90
42201;DHT22;27869;51.442;7.540;2023-08-30T06:41:58;13.10;99.90
42201;DHT22;27869;51.442;7.540;2023-08-30T06:44:25;13.10;99.90
42201;DHT22;27869;51.442;7.540;2023-08-30T06:46:52;13.20;99.90
42201;DHT22;27869;51.442;7.540;2023-08-30T06:49:20;13.20;99.90
42201;DHT22;27869;51.442;7.540;2023-08-30T06:51:48;13.30;99.90
42201;DHT22;27869;51.442;7.540;2023-08-30T06:54:15;13.30;99.90
42201;DHT22;27869;51.442;7.540;2023-08-30T06:56:45;13.40;99.90
42201;DHT22;27869;51.442;7.540;2023-08-30T06:59:12;13.40;99.90
42201;DHT22;27869;51.442;7.540;2023-08-30T07:01:38;13.50;99.90
42201;DHT22;27869;51.442;7.540;2023-08-30T07:04:05;13.50;99.90
42201;DHT22;27869;51.442;7.540;2023-08-30T07:06:32;13.60;99.90
42201;DHT22;27869;51.442;7.540;2023-08-30T07:09:00;13.70;99.90
42201;DHT22;27869;51.442;7.540;2023-08-30T07:11:30;13.80;99.90
42201;DHT22;27869;51.442;7.540;2023-08-30T07:13:56;13.90;99.90
42201;DHT22;27869;51.442;7.540;2023-08-30T07:16:23;13.90;99.90
42201;DHT22;27869;51.442;7.540;2023-08-30T07:18:50;14.00;99.90
42201;DHT22;27869;51.442;7.540;2023-08-30T07:21:17;14.10;99.90
42201;DHT22;27869;51.442;7.540;2023-08-30T07:23:44;14.20;99.90
42201;DHT22;27869;51.442;7.540;2023-08-30T07:26:12;14.30;99.90
42201;DHT22;27869;51.442;7.540;2023-08-30T07:28:39;14.40;99.90
42201;DHT22;27869;51.442;7.540;2023-08-30T07:31:06;14.50;99.90
42201;DHT22;27869;51.442;7.540;2023-08-30T07:33:33;14.60;99.90
42201;DHT22;27869;51.442;7.540;2023-08-30T07:36:00;14.70;99.90
42201;DHT22;27869;51.442;7.540;2023-08-30T07:38:27;14.90;99.90
42201;DHT22;27869;51.442;7.540;2023-08-30T07:40:54;14.90;99.90
42201;DHT22;27869;51.442;7.540;2023-08-30T07:43:22;15.00;99.90
42201;DHT22;27869;51.442;7.540;2023-08-30T07:45:49;15.10;99.90
42201;DHT22;27869;51.442;7.540;2023-08-30T07:48:16;15.30;99.90
42201;DHT22;27869;51.442;7.540;2023-08-30T07:50:43;15.40;99.90
42201;DHT22;27869;51.442;7.540;2023-08-30T07:53:09;15.50;99.90
42201;DHT22;27869;51.442;7.540;2023-08-30T07:55:36;15.60;99.90
42201;DHT22;27869;51.442;7.540;2023-08-30T07:58:03;15.70;99.90
42201;DHT22;27869;51.442;7.540;2023-08-30T08:00:32;15.80;99.90
42201;DHT22;27869;51.442;7.540;2023-08-30T08:02:58;15.90;99.90
42201;DHT22;27869;51.442;7.540;2023-08-30T08:05:25;16.00;99.90
42201;DHT22;27869;51.442;7.540;2023-08-30T08:07:53;16.20;99.90
42201;DHT22;27869;51.442;7.540;2023-08-30T08:10:20;16.30;99.90
42201;DHT22;27869;51.442;7.540;2023-08-30T08:12:47;16.50;99.90
42201;DHT22;27869;51.442;7.540;2023-08-30T08:15:14;16.60;99.90
42201;DHT22;27869;51.442;7.540;2023-08-30T08:17:42;16.70;99.90
42201;DHT22;27869;51.442;7.540;2023-08-30T08:20:10;16.90;99.90
42201;DHT22;27869;51.442;7.540;2023-08-30T08:22:37;17.00;99.90
42201;DHT22;27869;51.442;7.540;2023-08-30T08:25:04;17.20;99.90
42201;DHT22;27869;51.442;7.540;2023-08-30T08:27:31;17.30;99.90
42201;DHT22;27869;51.442;7.540;2023-08-30T08:29:58;17.50;99.90
42201;DHT22;27869;51.442;7.540;2023-08-30T08:32:25;17.70;99.90
42201;DHT22;27869;51.442;7.540;2023-08-30T08:34:53;17.80;99.90
42201;DHT22;27869;51.442;7.540;2023-08-30T08:37:20;17.90;99.90
42201;DHT22;27869;51.442;7.540;2023-08-30T08:39:47;18.10;99.90
42201;DHT22;27869;51.442;7.540;2023-08-30T08:42:17;18.20;99.90
42201;DHT22;27869;51.442;7.540;2023-08-30T08:44:46;18.30;99.90
42201;DHT22;27869;51.442;7.540;2023-08-30T08:47:13;18.50;99.90
42201;DHT22;27869;51.442;7.540;2023-08-30T08:49:41;18.60;99.90
42201;DHT22;27869;51.442;7.540;2023-08-30T08:52:10;18.80;99.90
42201;DHT22;27869;51.442;7.540;2023-08-30T08:54:39;18.90;99.90
42201;DHT22;27869;51.442;7.540;2023-08-30T08:57:06;19.00;99.90
42201;DHT22;27869;51.442;7.540;2023-08-30T08:59:34;19.20;99.90
42201;DHT22;27869;51.442;7.540;2023-08-30T09:02:01;19.30;99.90
42201;DHT22;27869;51.442;7.540;2023-08-30T09:04:30;19.40;99.90
42201;DHT22;27869;51.442;7.540;2023-08-30T09:06:58;19.50;99.90
42201;DHT22;27869;51.442;7.540;2023-08-30T09:09:27;19.70;99.90
42201;DHT22;27869;51.442;7.540;2023-08-30T09:11:54;19.70;99.90
42201;DHT22;27869;51.442;7.540;2023-08-30T09:14:20;19.80;99.90
42201;DHT22;27869;51.442;7.540;2023-08-30T09:16:57;19.80;99.90
42201;DHT22;27869;51.442;7.540;2023-08-30T09:19:26;19.80;99.90
42201;DHT22;27869;51.442;7.540;2023-08-30T09:21:53;19.80;99.90
42201;DHT22;27869;51.442;7.540;2023-08-30T09:24:20;19.80;99.90
42201;DHT22;27869;51.442;7.540;2023-08-30T09:26:49;19.80;99.90
42201;DHT22;27869;51.442;7.540;2023-08-30T09:29:18;19.90;99.90
42201;DHT22;27869;51.442;7.540;2023-08-30T09:31:45;20.00;99.90
42201;DHT22;27869;51.442;7.540;2023-08-30T09:34:12;19.90;99.90
42201;DHT22;27869;51.442;7.540;2023-08-30T09:36:40;20.00;99.90
42201;DHT22;27869;51.442;7.540;2023-08-30T09:39:09;20.00;99.90
42201;DHT22;27869;51.442;7.540;2023-08-30T09:41:36;20.10;99.90
42201;DHT22;27869;51.442;7.540;2023-08-30T09:44:09;20.20;99.90
42201;DHT22;27869;51.442;7.540;2023-08-30T09:46:43;20.30;99.90
42201;DHT22;27869;51.442;7.540;2023-08-30T09:49:10;20.40;99.90
42201;DHT22;27869;51.442;7.540;2023-08-30T09:51:39;20.50;99.90
42201;DHT22;27869;51.442;7.540;2023-08-30T09:54:13;20.50;99.90
42201;DHT22;27869;51.442;7.540;2023-08-30T09:56:41;20.50;99.90
42201;DHT22;27869;51.442;7.540;2023-08-30T09:59:11;20.50;99.90
42201;DHT22;27869;51.442;7.540;2023-08-30T10:01:38;20.50;99.90
42201;DHT22;27869;51.442;7.540;2023-08-30T10:04:07;20.60;99.90
42201;DHT22;27869;51.442;7.540;2023-08-30T10:06:35;20.60;99.90
42201;DHT22;27869;51.442;7.540;2023-08-30T10:09:03;20.60;99.90
42201;DHT22;27869;51.442;7.540;2023-08-30T10:11:32;20.50;99.90
42201;DHT22;27869;51.442;7.540;2023-08-30T10:14:00;20.40;99.90
42201;DHT22;27869;51.442;7.540;2023-08-30T10:16:35;20.40;99.90
42201;DHT22;27869;51.442;7.540;2023-08-30T10:19:09;20.30;99.90
42201;DHT22;27869;51.442;7.540;2023-08-30T10:21:37;20.30;99.90
42201;DHT22;27869;51.442;7.540;2023-08-30T10:24:06;20.30;99.90
42201;DHT22;27869;51.442;7.540;2023-08-30T10:26:34;20.20;99.90
42201;DHT22;27869;51.442;7.540;2023-08-30T10:29:03;20.20;99.90
42201;DHT22;27869;51.442;7.540;2023-08-30T10:31:32;20.20;99.90
42201;DHT22;27869;51.442;7.540;2023-08-30T10:33:59;20.10;99.90
42201;DHT22;27869;51.442;7.540;2023-08-30T10:36:26;20.10;99.90
42201;DHT22;27869;51.442;7.540;2023-08-30T10:38:55;20.10;99.90
42201;DHT22;27869;51.442;7.540;2023-08-30T10:41:24;20.10;99.90
42201;DHT22;27869;51.442;7.540;2023-08-30T10:43:52;20.00;99.90
42201;DHT22;27869;51.442;7.540;2023-08-30T10:46:29;20.00;99.90
42201;DHT22;27869;51.442;7.540;2023-08-30T10:49:08;19.90;99.90
42201;DHT22;27869;51.442;7.540;2023-08-30T10:51:37;19.80;99.90
42201;DHT22;27869;51.442;7.540;2023-08-30T10:54:11;19.70;99.90
42201;DHT22;27869;51.442;7.540;2023-08-30T10:56:48;19.70;99.90
42201;DHT22;27869;51.442;7.540;2023-08-30T10:59:19;19.60;99.90
42201;DHT22;27869;51.442;7.540;2023-08-30T11:01:47;19.50;99.90
42201;DHT22;27869;51.442;7.540;2023-08-30T11:04:16;19.30;99.90
42201;DHT22;27869;51.442;7.540;2023-08-30T11:06:44;19.10;99.90
42201;DHT22;27869;51.442;7.540;2023-08-30T11:09:13;19.10;99.90
42201;DHT22;27869;51.442;7.540;2023-08-30T11:11:43;19.00;99.90
42201;DHT22;27869;51.442;7.540;2023-08-30T11:14:10;18.90;99.90
42201;DHT22;27869;51.442;7.540;2023-08-30T11:16:37;18.90;99.90
42201;DHT22;27869;51.442;7.540;2023-08-30T11:19:05;18.70;99.90
42201;DHT22;27869;51.442;7.540;2023-08-30T11:21:35;18.70;99.90
42201;DHT22;27869;51.442;7.540;2023-08-30T11:24:03;18.70;99.90
42201;DHT22;27869;51.442;7.540;2023-08-30T11:26:31;18.70;99.90
42201;DHT22;27869;51.442;7.540;2023-08-30T11:28:58;18.60;99.90
42201;DHT22;27869;51.442;7.540;2023-08-30T11:31:30;18.50;99.90
42201;DHT22;27869;51.442;7.540;2023-08-30T11:33:58;18.40;99.90
42201;DHT22;27869;51.442;7.540;2023-08-30T11:36:27;18.40;99.90
42201;DHT22;27869;51.442;7.540;2023-08-30T11:38:55;18.30;99.90
42201;DHT22;27869;51.442;7.540;2023-08-30T11:41:22;18.20;99.90
42201;DHT22;27869;51.442;7.540;2023-08-30T11:43:50;18.10;99.90
42201;DHT22;27869;51.442;7.540;2023-08-30T11:46:17;18.00;99.90
42201;DHT22;27869;51.442;7.540;2023-08-30T11:48:45;18.00;99.90
42201;DHT22;27869;51.442;7.540;2023-08-30T11:51:13;18.00;99.90
42201;DHT22;27869;51.442;7.540;2023-08-30T11:53:40;17.90;99.90
42201;DHT22;27869;51.442;7.540;2023-08-30T11:56:09;17.90;99.90
42201;DHT22;27869;51.442;7.540;2023-08-30T11:58:37;17.80;99.90
42201;DHT22;27869;51.442;7.540;2023-08-30T12:01:04;17.80;99.90
42201;DHT22;27869;51.442;7.540;2023-08-30T12:03:32;17.70;99.90
42201;DHT22;27869;51.442;7.540;2023-08-30T12:05:59;17.60;99.90
42201;DHT22;27869;51.442;7.540;2023-08-30T12:08:28;17.60;99.90
42201;DHT22;27869;51.442;7.540;2023-08-30T12:10:56;17.60;99.90
42201;DHT22;27869;51.442;7.540;2023-08-30T12:13:25;17.50;99.90
42201;DHT22;27869;51.442;7.540;2023-08-30T12:15:52;17.50;99.90
42201;DHT22;27869;51.442;7.540;2023-08-30T12:18:21;17.40;99.90
42201;DHT22;27869;51.442;7.540;2023-08-30T12:20:53;17.40;99.90
42201;DHT22;27869;51.442;7.540;2023-08-30T12:23:21;17.30;99.90
42201;DHT22;27869;51.442;7.540;2023-08-30T12:25:58;17.30;99.90
42201;DHT22;27869;51.442;7.540;2023-08-30T12:28:28;17.20;99.90
42201;DHT22;27869;51.442;7.540;2023-08-30T12:30:55;17.10;99.90
42201;DHT22;27869;51.442;7.540;2023-08-30T12:33:22;17.10;99.90
42201;DHT22;27869;51.442;7.540;2023-08-30T12:35:51;17.00;99.90
42201;DHT22;27869;51.442;7.540;2023-08-30T12:38:17;17.00;99.90
42201;DHT22;27869;51.442;7.540;2023-08-30T12:40:45;16.90;99.90
42201;DHT22;27869;51.442;7.540;2023-08-30T12:43:12;16.80;99.90
42201;DHT22;27869;51.442;7.540;2023-08-30T12:45:41;16.80;99.90
42201;DHT22;27869;51.442;7.540;2023-08-30T12:48:09;16.80;99.90
42201;DHT22;27869;51.442;7.540;2023-08-30T12:50:37;16.70;99.90
42201;DHT22;27869;51.442;7.540;2023-08-30T12:53:06;16.70;99.90
42201;DHT22;27869;51.442;7.540;2023-08-30T12:55:33;16.70;99.90
42201;DHT22;27869;51.442;7.540;2023-08-30T12:58:01;16.70;99.90
42201;DHT22;27869;51.442;7.540;2023-08-30T13:00:27;16.70;99.90
42201;DHT22;27869;51.442;7.540;2023-08-30T13:02:55;16.70;99.90
42201;DHT22;27869;51.442;7.540;2023-08-30T13:05:22;16.60;99.90
42201;DHT22;27869;51.442;7.540;2023-08-30T13:07:49;16.60;99.90
42201;DHT22;27869;51.442;7.540;2023-08-30T13:10:16;16.60;99.90
42201;DHT22;27869;51.442;7.540;2023-08-30T13:12:44;16.60;99.90
42201;DHT22;27869;51.442;7.540;2023-08-30T13:15:11;16.60;99.90
42201;DHT22;27869;51.442;7.540;2023-08-30T13:17:38;16.60;99.90
42201;DHT22;27869;51.442;7.540;2023-08-30T13:20:07;16.60;99.90
42201;DHT22;27869;51.442;7.540;2023-08-30T13:22:34;16.60;99.90
42201;DHT22;27869;51.442;7.540;2023-08-30T13:25:00;16.60;99.90
42201;DHT22;27869;51.442;7.540;2023-08-30T13:27:29;16.60;99.90
42201;DHT22;27869;51.442;7.540;2023-08-30T13:29:55;16.60;99.90
42201;DHT22;27869;51.442;7.540;2023-08-30T13:32:22;16.60;99.90
42201;DHT22;27869;51.442;7.540;2023-08-30T13:34:50;16.60;99.90
42201;DHT22;27869;51.442;7.540;2023-08-30T13:37:18;16.60;99.90
42201;DHT22;27869;51.442;7.540;2023-08-30T13:39:45;16.60;99.90
42201;DHT22;27869;51.442;7.540;2023-08-30T13:42:12;16.70;99.90
42201;DHT22;27869;51.442;7.540;2023-08-30T13:44:39;16.70;99.90
42201;DHT22;27869;51.442;7.540;2023-08-30T13:47:08;16.70;99.90
42201;DHT22;27869;51.442;7.540;2023-08-30T13:49:35;16.70;99.90
42201;DHT22;27869;51.442;7.540;2023-08-30T13:52:02;16.60;99.90
42201;DHT22;27869;51.442;7.540;2023-08-30T13:54:30;16.60;99.90
42201;DHT22;27869;51.442;7.540;2023-08-30T13:56:58;16.60;99.90
42201;DHT22;27869;51.442;7.540;2023-08-30T13:59:24;16.50;99.90
42201;DHT22;27869;51.442;7.540;2023-08-30T14:01:52;16.50;99.90
42201;DHT22;27869;51.442;7.540;2023-08-30T14:04:20;16.40;99.90
42201;DHT22;27869;51.442;7.540;2023-08-30T14:06:47;16.40;99.90
42201;DHT22;27869;51.442;7.540;2023-08-30T14:09:14;16.40;99.90
42201;DHT22;27869;51.442;7.540;2023-08-30T14:11:42;16.40;99.90
42201;DHT22;27869;51.442;7.540;2023-08-30T14:14:10;16.30;99.90
42201;DHT22;27869;51.442;7.540;2023-08-30T14:16:36;16.30;99.90
42201;DHT22;27869;51.442;7.540;2023-08-30T14:19:03;16.30;99.90
42201;DHT22;27869;51.442;7.540;2023-08-30T14:21:31;16.30;99.90
42201;DHT22;27869;51.442;7.540;2023-08-30T14:23:58;16.30;99.90
42201;DHT22;27869;51.442;7.540;2023-08-30T14:26:26;16.30;99.90
42201;DHT22;27869;51.442;7.540;2023-08-30T14:28:54;16.30;99.90
42201;DHT22;27869;51.442;7.540;2023-08-30T14:31:21;16.30;99.90
42201;DHT22;27869;51.442;7.540;2023-08-30T14:33:48;16.20;99.90
42201;DHT22;27869;51.442;7.540;2023-08-30T14:36:15;16.20;99.90
42201;DHT22;27869;51.442;7.540;2023-08-30T14:38:42;16.20;99.90
42201;DHT22;27869;51.442;7.540;2023-08-30T14:41:09;16.10;99.90
42201;DHT22;27869;51.442;7.540;2023-08-30T14:43:36;16.10;99.90
42201;DHT22;27869;51.442;7.540;2023-08-30T14:46:05;16.10;99.90
42201;DHT22;27869;51.442;7.540;2023-08-30T14:48:32;16.10;99.90
42201;DHT22;27869;51.442;7.540;2023-08-30T14:51:00;16.10;99.90
42201;DHT22;27869;51.442;7.540;2023-08-30T14:53:27;16.10;99.90
42201;DHT22;27869;51.442;7.540;2023-08-30T14:55:54;16.10;99.90
42201;DHT22;27869;51.442;7.540;2023-08-30T14:58:21;16.10;99.90
42201;DHT22;27869;51.442;7.540;2023-08-30T15:00:49;16.10;99.90
42201;DHT22;27869;51.442;7.540;2023-08-30T15:03:18;16.10;99.90
42201;DHT22;27869;51.442;7.540;2023-08-30T15:05:52;16.10;99.90
42201;DHT22;27869;51.442;7.540;2023-08-30T15:08:19;16.00;99.90
42201;DHT22;27869;51.442;7.540;2023-08-30T15:10:46;16.00;99.90
42201;DHT22;27869;51.442;7.540;2023-08-30T15:13:13;16.00;99.90
42201;DHT22;27869;51.442;7.540;2023-08-30T15:15:40;15.90;99.90
42201;DHT22;27869;51.442;7.540;2023-08-30T15:18:07;15.90;99.90
42201;DHT22;27869;51.442;7.540;2023-08-30T15:20:35;15.90;99.90
42201;DHT22;27869;51.442;7.540;2023-08-30T15:23:02;15.90;99.90
42201;DHT22;27869;51.442;7.540;2023-08-30T15:25:29;15.90;99.90
42201;DHT22;27869;51.442;7.540;2023-08-30T15:27:57;15.80;99.90
42201;DHT22;27869;51.442;7.540;2023-08-30T15:30:24;15.80;99.90
42201;DHT22;27869;51.442;7.540;2023-08-30T15:32:50;15.80;99.90